Pagrindinis puslapis
METAR-TAF:

METAR-TAF

Oro uostai :

Meierwik

Glücksburg, Vokietija

platuma: 54-50N, ilguma: 009-30E, Aukštis: 27 m

Dabartinis oras

Ataskaita buvo paskelbta 30 minutes, ne 20:20 UTC
Vėjas 13 kt iš Pietų su gūsio iki 23 kt
Temperatūra 10°C
Drėgmė 82%
Slėgis 1000 hPa
Matomumas 10 km arba daugiau

METAR: ETGG 272020Z AUTO 18013G23KT 9999 // ////// 10/07 Q1000 ///

Laikas: 21:50 (20:50 UTC)


TAF: trūkstamas

Orai ataskaitas ir orų prognozės (METAR, TAF).

turimą stotys yra geltonos ir raudonos taškus žemėlapyje.

Perkelti pele per norėdami pamatyti stoties vardą.

Tada spustelėkite, norėdami matyti oro stebėjimo ir prognozės.

Norėdami pakeisti žemėlapį: spustelėkite ant žalios mygtukų su juodo kryžiaus žemyn,; žalią mygtuką su brūkšneliu, jei norite nutolinti; arba žalių rodyklių gretimoms žemėlapius.


METAR-TAF: